DLH6LB EDDF-ENGM
Flight info
| Callsign | DLH6LB |
|---|---|
| Flight time | 1h 43m |
| Altitude | 36000 |
| Route | MARUN3W/25C MARUN Y150 TOLGI DCT ALASA DCT INVOL DCT SABAK/N0450F380 L997 LUNIP |
| Aircraft | A21N/M-SDE2E3FGHIRWXY/LB1 |
Departure
| Time | 2026-05-07 14:34 |
|---|---|
| Airport | Frankfurt Main Airport (EDDF) |
Arrival
| Time | 2026-05-07 16:17 |
|---|---|
| Airport | Oslo-Gardermoen International Airport (ENGM) |
| Time | Latitude | Longitude | Altitude | Speed | Heading |
|---|---|---|---|---|---|
| 2026-05-07 13:39 | 50.04749 | 8.57132 | 361 ft | 0 kts | 120° |
| 2026-05-07 14:23 | 50.04760 | 8.57103 | 365 ft | 4 kts | 120° |
| 2026-05-07 14:23 | 50.04774 | 8.57070 | 366 ft | 4 kts | 136° |
| 2026-05-07 14:23 | 50.04796 | 8.57049 | 364 ft | 4 kts | 168° |
| 2026-05-07 14:24 | 50.04817 | 8.57051 | 361 ft | 1 kts | 205° |
| 2026-05-07 14:24 | 50.04822 | 8.57054 | 361 ft | 0 kts | 205° |
| 2026-05-07 14:27 | 50.04812 | 8.57047 | 363 ft | 4 kts | 205° |
| 2026-05-07 14:27 | 50.04772 | 8.57019 | 361 ft | 9 kts | 204° |
| 2026-05-07 14:27 | 50.04703 | 8.56970 | 362 ft | 13 kts | 204° |
| 2026-05-07 14:28 | 50.04605 | 8.56912 | 361 ft | 17 kts | 191° |
| 2026-05-07 14:28 | 50.04476 | 8.56859 | 365 ft | 20 kts | 191° |
| 2026-05-07 14:28 | 50.04333 | 8.56828 | 368 ft | 22 kts | 194° |
| 2026-05-07 14:28 | 50.04295 | 8.56981 | 369 ft | 24 kts | 67° |
| 2026-05-07 14:29 | 50.04352 | 8.57229 | 367 ft | 25 kts | 72° |
| 2026-05-07 14:29 | 50.04420 | 8.57491 | 368 ft | 27 kts | 68° |
| 2026-05-07 14:29 | 50.04486 | 8.57775 | 371 ft | 29 kts | 71° |
| 2026-05-07 14:29 | 50.04539 | 8.57998 | 370 ft | 30 kts | 69° |
| 2026-05-07 14:30 | 50.04566 | 8.58110 | 370 ft | 30 kts | 70° |
| 2026-05-07 14:30 | 50.04601 | 8.58264 | 373 ft | 17 kts | 66° |
| 2026-05-07 14:31 | 50.04637 | 8.58416 | 374 ft | 15 kts | 70° |
| 2026-05-07 14:31 | 50.04650 | 8.58543 | 374 ft | 10 kts | 117° |
| 2026-05-07 14:31 | 50.04581 | 8.58602 | 375 ft | 13 kts | 163° |
| 2026-05-07 14:31 | 50.04512 | 8.58629 | 376 ft | 8 kts | 180° |
| 2026-05-07 14:32 | 50.04485 | 8.58576 | 376 ft | 0 kts | 249° |
| 2026-05-07 14:33 | 50.04478 | 8.58543 | 376 ft | 18 kts | 249° |
| 2026-05-07 14:33 | 50.04335 | 8.57959 | 372 ft | 99 kts | 250° |
| 2026-05-07 14:33 | 50.04015 | 8.56607 | 363 ft | 164 kts | 249° |
| 2026-05-07 14:33 | 50.03621 | 8.54999 | 842 ft | 172 kts | 249° |
| 2026-05-07 14:34 | 50.03164 | 8.53290 | 1646 ft | 170 kts | 248° |
| 2026-05-07 14:34 | 50.02674 | 8.51659 | 2455 ft | 169 kts | 246° |
| 2026-05-07 14:34 | 50.02142 | 8.50055 | 3252 ft | 168 kts | 242° |
| 2026-05-07 14:34 | 50.01322 | 8.48676 | 3812 ft | 183 kts | 216° |
| 2026-05-07 14:35 | 50.00094 | 8.47938 | 4421 ft | 198 kts | 193° |
| 2026-05-07 14:35 | 49.98684 | 8.47639 | 5081 ft | 210 kts | 189° |
| 2026-05-07 14:35 | 49.97207 | 8.47333 | 5839 ft | 216 kts | 190° |
| 2026-05-07 14:35 | 49.95717 | 8.46910 | 6646 ft | 220 kts | 197° |
| 2026-05-07 14:36 | 49.94207 | 8.46227 | 7292 ft | 231 kts | 199° |
| 2026-05-07 14:36 | 49.92628 | 8.45487 | 7796 ft | 249 kts | 200° |
| 2026-05-07 14:36 | 49.91169 | 8.44039 | 8457 ft | 254 kts | 233° |
| 2026-05-07 14:36 | 49.90446 | 8.41582 | 9272 ft | 253 kts | 263° |
| 2026-05-07 14:37 | 49.90565 | 8.38867 | 10097 ft | 255 kts | 289° |
| 2026-05-07 14:37 | 49.92992 | 8.35005 | 11630 ft | 264 kts | 335° |
| 2026-05-07 14:37 | 49.94759 | 8.33930 | 12014 ft | 286 kts | 338° |
| 2026-05-07 14:38 | 49.96690 | 8.32789 | 12328 ft | 309 kts | 338° |
| 2026-05-07 14:38 | 49.98763 | 8.31517 | 12622 ft | 330 kts | 337° |
| 2026-05-07 14:38 | 50.00949 | 8.30137 | 12910 ft | 350 kts | 337° |
| 2026-05-07 14:38 | 50.03290 | 8.28912 | 13185 ft | 364 kts | 347° |
| 2026-05-07 14:39 | 50.05824 | 8.28638 | 13839 ft | 370 kts | 3° |
| 2026-05-07 14:39 | 50.08365 | 8.29485 | 14541 ft | 376 kts | 16° |
| 2026-05-07 14:39 | 50.10855 | 8.30819 | 15239 ft | 380 kts | 18° |
| 2026-05-07 14:39 | 50.13339 | 8.32171 | 15918 ft | 384 kts | 18° |
| 2026-05-07 14:40 | 50.15888 | 8.33540 | 16605 ft | 388 kts | 17° |
| 2026-05-07 14:40 | 50.18457 | 8.34900 | 17282 ft | 392 kts | 17° |
| 2026-05-07 14:40 | 50.21067 | 8.36270 | 17955 ft | 396 kts | 17° |
| 2026-05-07 14:40 | 50.23696 | 8.37650 | 18574 ft | 400 kts | 17° |
| 2026-05-07 14:41 | 50.26304 | 8.39022 | 19134 ft | 403 kts | 17° |
| 2026-05-07 14:41 | 50.28968 | 8.40432 | 19703 ft | 407 kts | 18° |
| 2026-05-07 14:41 | 50.31661 | 8.41882 | 20273 ft | 410 kts | 18° |
| 2026-05-07 14:41 | 50.34357 | 8.43358 | 20826 ft | 412 kts | 18° |
| 2026-05-07 14:42 | 50.37053 | 8.44831 | 21366 ft | 415 kts | 18° |
| 2026-05-07 14:42 | 50.39736 | 8.46293 | 21870 ft | 419 kts | 18° |
| 2026-05-07 14:42 | 50.42497 | 8.47805 | 22392 ft | 422 kts | 18° |
| 2026-05-07 14:42 | 50.45350 | 8.49373 | 22913 ft | 426 kts | 18° |
| 2026-05-07 14:43 | 50.48168 | 8.50853 | 23421 ft | 429 kts | 16° |
| 2026-05-07 14:43 | 50.51003 | 8.52209 | 23877 ft | 432 kts | 15° |
| 2026-05-07 14:43 | 50.53895 | 8.53589 | 24318 ft | 435 kts | 16° |
| 2026-05-07 14:43 | 50.56795 | 8.54987 | 24753 ft | 437 kts | 16° |
| 2026-05-07 14:44 | 50.59729 | 8.56394 | 25174 ft | 440 kts | 16° |
| 2026-05-07 14:44 | 50.62638 | 8.57783 | 25581 ft | 443 kts | 16° |
| 2026-05-07 14:44 | 50.65598 | 8.59201 | 25997 ft | 445 kts | 16° |
| 2026-05-07 14:44 | 50.68560 | 8.60629 | 26399 ft | 447 kts | 16° |
| 2026-05-07 14:45 | 50.71550 | 8.62075 | 26813 ft | 450 kts | 16° |
| 2026-05-07 14:45 | 50.74554 | 8.63529 | 27216 ft | 452 kts | 16° |
| 2026-05-07 14:45 | 50.77532 | 8.64990 | 27614 ft | 455 kts | 18° |
| 2026-05-07 14:45 | 50.80451 | 8.66996 | 27990 ft | 459 kts | 28° |
| 2026-05-07 14:46 | 50.83058 | 8.69906 | 28477 ft | 459 kts | 40° |
| 2026-05-07 14:46 | 50.85232 | 8.73594 | 29004 ft | 459 kts | 51° |
| 2026-05-07 14:46 | 50.87151 | 8.77620 | 29550 ft | 457 kts | 52° |
| 2026-05-07 14:46 | 50.89355 | 8.81219 | 30022 ft | 455 kts | 37° |
| 2026-05-07 14:47 | 50.92071 | 8.83755 | 30413 ft | 452 kts | 24° |
| 2026-05-07 14:47 | 50.94903 | 8.85779 | 30799 ft | 451 kts | 23° |
| 2026-05-07 14:47 | 50.97765 | 8.87839 | 31179 ft | 451 kts | 24° |
| 2026-05-07 14:47 | 51.00610 | 8.89944 | 31510 ft | 452 kts | 24° |
| 2026-05-07 14:48 | 51.03470 | 8.92087 | 31690 ft | 456 kts | 24° |
| 2026-05-07 14:48 | 51.06351 | 8.94243 | 31800 ft | 461 kts | 24° |
| 2026-05-07 14:48 | 51.09272 | 8.96453 | 31916 ft | 465 kts | 25° |
| 2026-05-07 14:48 | 51.12186 | 8.98660 | 32096 ft | 465 kts | 24° |
| 2026-05-07 14:49 | 51.15071 | 9.00853 | 32332 ft | 465 kts | 25° |
| 2026-05-07 14:49 | 51.18016 | 9.03130 | 32585 ft | 465 kts | 25° |
| 2026-05-07 14:49 | 51.20893 | 9.05327 | 32849 ft | 464 kts | 24° |
| 2026-05-07 14:49 | 51.23816 | 9.07536 | 33130 ft | 463 kts | 24° |
| 2026-05-07 14:50 | 51.26723 | 9.09736 | 33401 ft | 462 kts | 25° |
| 2026-05-07 14:50 | 51.29627 | 9.11950 | 33679 ft | 462 kts | 24° |
| 2026-05-07 14:50 | 51.32516 | 9.14173 | 33965 ft | 461 kts | 25° |
| 2026-05-07 14:50 | 51.35405 | 9.16387 | 34223 ft | 460 kts | 24° |
| 2026-05-07 14:51 | 51.38328 | 9.18434 | 34439 ft | 458 kts | 17° |
| 2026-05-07 14:51 | 51.41389 | 9.19559 | 34635 ft | 456 kts | 9° |
| 2026-05-07 14:51 | 51.47702 | 9.21320 | 34751 ft | 463 kts | 9° |
| 2026-05-07 14:52 | 51.54018 | 9.23206 | 34935 ft | 465 kts | 10° |
| 2026-05-07 14:52 | 51.57205 | 9.24199 | 35039 ft | 466 kts | 10° |
| 2026-05-07 14:52 | 51.60381 | 9.25210 | 35097 ft | 466 kts | 10° |
| 2026-05-07 14:53 | 51.66758 | 9.27164 | 35086 ft | 466 kts | 10° |
| 2026-05-07 14:53 | 51.73112 | 9.29107 | 35074 ft | 465 kts | 10° |
| 2026-05-07 14:54 | 51.79475 | 9.31080 | 35076 ft | 465 kts | 10° |
| 2026-05-07 14:54 | 51.85824 | 9.33061 | 35081 ft | 465 kts | 10° |
| 2026-05-07 14:55 | 51.92140 | 9.35042 | 35079 ft | 465 kts | 11° |
| 2026-05-07 14:55 | 51.98494 | 9.37030 | 35076 ft | 465 kts | 10° |
| 2026-05-07 14:56 | 52.04863 | 9.39031 | 35076 ft | 465 kts | 10° |
| 2026-05-07 14:56 | 52.06842 | 9.39654 | 35076 ft | 465 kts | 10° |
| 2026-05-07 14:57 | 52.12492 | 9.41435 | 35083 ft | 465 kts | 10° |
| 2026-05-07 14:57 | 52.18854 | 9.43450 | 35081 ft | 464 kts | 10° |
| 2026-05-07 14:58 | 52.25183 | 9.45457 | 35086 ft | 464 kts | 10° |
| 2026-05-07 14:58 | 52.31521 | 9.47472 | 35082 ft | 464 kts | 11° |
| 2026-05-07 14:59 | 52.37821 | 9.49484 | 35082 ft | 464 kts | 10° |
| 2026-05-07 14:59 | 52.44177 | 9.51516 | 35083 ft | 464 kts | 11° |
| 2026-05-07 15:00 | 52.50471 | 9.53553 | 35081 ft | 464 kts | 11° |
| 2026-05-07 15:00 | 52.56828 | 9.55563 | 35111 ft | 463 kts | 11° |
| 2026-05-07 15:01 | 52.63124 | 9.57608 | 35104 ft | 463 kts | 11° |
| 2026-05-07 15:01 | 52.69458 | 9.59670 | 35097 ft | 463 kts | 11° |
| 2026-05-07 15:02 | 52.75758 | 9.61716 | 35079 ft | 463 kts | 11° |
| 2026-05-07 15:02 | 52.82092 | 9.63774 | 35083 ft | 464 kts | 11° |
| 2026-05-07 15:03 | 52.88433 | 9.65849 | 35083 ft | 464 kts | 11° |
| 2026-05-07 15:03 | 52.94727 | 9.67913 | 35083 ft | 464 kts | 11° |
| 2026-05-07 15:04 | 53.01067 | 9.69989 | 35077 ft | 464 kts | 11° |
| 2026-05-07 15:04 | 53.07402 | 9.72078 | 35074 ft | 464 kts | 11° |
| 2026-05-07 15:05 | 53.13742 | 9.74177 | 35078 ft | 464 kts | 11° |
| 2026-05-07 15:05 | 53.20062 | 9.76275 | 35079 ft | 464 kts | 11° |
| 2026-05-07 15:06 | 53.26360 | 9.78364 | 35080 ft | 464 kts | 11° |
| 2026-05-07 15:06 | 53.32666 | 9.80478 | 35080 ft | 464 kts | 11° |
| 2026-05-07 15:07 | 53.38973 | 9.82600 | 35074 ft | 465 kts | 11° |
| 2026-05-07 15:07 | 53.44268 | 9.84361 | 35082 ft | 465 kts | 11° |
| 2026-05-07 15:08 | 53.50629 | 9.86491 | 35085 ft | 465 kts | 11° |
| 2026-05-07 15:08 | 53.56935 | 9.88611 | 35081 ft | 465 kts | 11° |
| 2026-05-07 15:09 | 53.63282 | 9.90765 | 35085 ft | 466 kts | 11° |
| 2026-05-07 15:09 | 53.69601 | 9.92920 | 35084 ft | 466 kts | 11° |
| 2026-05-07 15:10 | 53.76000 | 9.95095 | 35085 ft | 466 kts | 11° |
| 2026-05-07 15:10 | 53.82327 | 9.97270 | 35090 ft | 466 kts | 11° |
| 2026-05-07 15:11 | 53.88688 | 9.99462 | 35092 ft | 464 kts | 11° |
| 2026-05-07 15:11 | 53.94984 | 10.01609 | 35097 ft | 464 kts | 11° |
| 2026-05-07 15:12 | 54.01276 | 10.03762 | 35100 ft | 464 kts | 11° |
| 2026-05-07 15:12 | 54.07643 | 10.05981 | 35103 ft | 464 kts | 11° |
| 2026-05-07 15:13 | 54.13904 | 10.08147 | 35109 ft | 461 kts | 12° |
| 2026-05-07 15:13 | 54.20205 | 10.10355 | 35131 ft | 460 kts | 11° |
| 2026-05-07 15:14 | 54.26448 | 10.12522 | 35139 ft | 460 kts | 11° |
| 2026-05-07 15:14 | 54.32730 | 10.14710 | 35142 ft | 460 kts | 12° |
| 2026-05-07 15:15 | 54.38931 | 10.16892 | 35176 ft | 458 kts | 12° |
| 2026-05-07 15:15 | 54.42040 | 10.17986 | 35348 ft | 456 kts | 12° |
| 2026-05-07 15:15 | 54.45076 | 10.19059 | 35560 ft | 455 kts | 12° |
| 2026-05-07 15:16 | 54.48240 | 10.20177 | 35799 ft | 453 kts | 12° |
| 2026-05-07 15:16 | 54.51284 | 10.21259 | 36039 ft | 450 kts | 12° |
| 2026-05-07 15:16 | 54.54352 | 10.22358 | 36275 ft | 449 kts | 12° |
| 2026-05-07 15:16 | 54.57418 | 10.23449 | 36528 ft | 448 kts | 11° |
| 2026-05-07 15:17 | 54.60467 | 10.24527 | 36782 ft | 447 kts | 11° |
| 2026-05-07 15:17 | 54.63506 | 10.25603 | 37038 ft | 445 kts | 11° |
| 2026-05-07 15:17 | 54.66551 | 10.26694 | 37169 ft | 447 kts | 11° |
| 2026-05-07 15:17 | 54.69495 | 10.27745 | 37175 ft | 446 kts | 11° |
| 2026-05-07 15:18 | 54.75630 | 10.29928 | 37133 ft | 445 kts | 11° |
| 2026-05-07 15:18 | 54.81704 | 10.32108 | 37126 ft | 445 kts | 11° |
| 2026-05-07 15:19 | 54.87671 | 10.34259 | 37127 ft | 444 kts | 11° |
| 2026-05-07 15:19 | 54.93776 | 10.36469 | 37124 ft | 444 kts | 11° |
| 2026-05-07 15:20 | 54.99798 | 10.38658 | 37122 ft | 444 kts | 11° |
| 2026-05-07 15:20 | 55.05850 | 10.40853 | 37122 ft | 444 kts | 11° |
| 2026-05-07 15:21 | 55.11906 | 10.43054 | 37124 ft | 443 kts | 11° |
| 2026-05-07 15:21 | 55.17955 | 10.45261 | 37120 ft | 443 kts | 11° |
| 2026-05-07 15:22 | 55.23897 | 10.47434 | 37118 ft | 443 kts | 11° |
| 2026-05-07 15:22 | 55.29926 | 10.49655 | 37116 ft | 443 kts | 11° |
| 2026-05-07 15:23 | 55.36029 | 10.51898 | 37115 ft | 443 kts | 11° |
| 2026-05-07 15:23 | 55.42050 | 10.54151 | 37113 ft | 443 kts | 11° |
| 2026-05-07 15:24 | 55.48086 | 10.56387 | 37114 ft | 443 kts | 11° |
| 2026-05-07 15:24 | 55.54098 | 10.58613 | 37114 ft | 443 kts | 11° |
| 2026-05-07 15:25 | 55.60120 | 10.60867 | 37124 ft | 443 kts | 11° |
| 2026-05-07 15:25 | 55.66074 | 10.63120 | 37124 ft | 443 kts | 11° |
| 2026-05-07 15:26 | 55.72164 | 10.65394 | 37124 ft | 443 kts | 11° |
| 2026-05-07 15:26 | 55.78209 | 10.67696 | 37124 ft | 443 kts | 11° |
| 2026-05-07 15:27 | 55.84234 | 10.69971 | 37131 ft | 443 kts | 11° |
| 2026-05-07 15:27 | 55.90242 | 10.72251 | 37125 ft | 443 kts | 11° |
| 2026-05-07 15:28 | 55.96257 | 10.74544 | 37128 ft | 443 kts | 11° |
| 2026-05-07 15:28 | 56.02274 | 10.76846 | 37128 ft | 443 kts | 11° |
| 2026-05-07 15:29 | 56.08305 | 10.79147 | 37127 ft | 443 kts | 11° |
| 2026-05-07 15:29 | 56.14346 | 10.81479 | 37135 ft | 442 kts | 11° |
| 2026-05-07 15:30 | 56.20313 | 10.83789 | 37130 ft | 442 kts | 11° |
| 2026-05-07 15:30 | 56.26331 | 10.86123 | 37139 ft | 442 kts | 11° |
| 2026-05-07 15:31 | 56.32309 | 10.88433 | 37142 ft | 442 kts | 11° |
| 2026-05-07 15:31 | 56.38315 | 10.90819 | 37142 ft | 441 kts | 11° |
| 2026-05-07 15:32 | 56.44324 | 10.93168 | 37136 ft | 441 kts | 10° |
| 2026-05-07 15:32 | 56.50331 | 10.95488 | 37131 ft | 441 kts | 10° |
| 2026-05-07 15:33 | 56.56300 | 10.97818 | 37130 ft | 441 kts | 10° |
| 2026-05-07 15:33 | 56.62210 | 11.00146 | 37137 ft | 441 kts | 10° |
| 2026-05-07 15:34 | 56.68312 | 11.02565 | 37135 ft | 442 kts | 10° |
| 2026-05-07 15:34 | 56.74327 | 11.04956 | 37133 ft | 442 kts | 10° |
| 2026-05-07 15:35 | 56.80212 | 11.07310 | 37131 ft | 442 kts | 10° |
| 2026-05-07 15:35 | 56.86349 | 11.09756 | 37131 ft | 442 kts | 10° |
| 2026-05-07 15:36 | 56.92337 | 11.12145 | 37141 ft | 442 kts | 10° |
| 2026-05-07 15:36 | 56.98299 | 11.14547 | 37136 ft | 443 kts | 9° |
| 2026-05-07 15:37 | 57.04331 | 11.16965 | 37136 ft | 443 kts | 10° |
| 2026-05-07 15:37 | 57.10355 | 11.19409 | 37136 ft | 443 kts | 10° |
| 2026-05-07 15:38 | 57.16379 | 11.21858 | 37140 ft | 443 kts | 9° |
| 2026-05-07 15:38 | 57.22403 | 11.24321 | 37134 ft | 444 kts | 9° |
| 2026-05-07 15:39 | 57.28395 | 11.26775 | 37136 ft | 444 kts | 9° |
| 2026-05-07 15:39 | 57.34419 | 11.29239 | 37133 ft | 443 kts | 9° |
| 2026-05-07 15:40 | 57.40448 | 11.31727 | 37133 ft | 444 kts | 9° |
| 2026-05-07 15:40 | 57.46475 | 11.34209 | 37139 ft | 445 kts | 9° |
| 2026-05-07 15:41 | 57.52497 | 11.36708 | 37134 ft | 445 kts | 9° |
| 2026-05-07 15:41 | 57.58558 | 11.39229 | 37133 ft | 445 kts | 9° |
| 2026-05-07 15:42 | 57.64546 | 11.41733 | 37127 ft | 445 kts | 9° |
| 2026-05-07 15:42 | 57.70615 | 11.44274 | 37134 ft | 446 kts | 9° |
| 2026-05-07 15:43 | 57.76648 | 11.46807 | 37122 ft | 447 kts | 9° |
| 2026-05-07 15:43 | 57.82727 | 11.49372 | 37120 ft | 447 kts | 9° |
| 2026-05-07 15:44 | 57.88757 | 11.51932 | 37122 ft | 447 kts | 9° |
| 2026-05-07 15:44 | 57.94826 | 11.54504 | 37123 ft | 447 kts | 9° |
| 2026-05-07 15:45 | 58.00895 | 11.57089 | 37132 ft | 447 kts | 8° |
| 2026-05-07 15:45 | 58.06969 | 11.59682 | 37127 ft | 447 kts | 8° |
| 2026-05-07 15:46 | 58.16065 | 11.63466 | 37128 ft | 445 kts | 4° |
| 2026-05-07 15:46 | 58.19129 | 11.63737 | 37121 ft | 438 kts | 352° |
| 2026-05-07 15:47 | 58.22146 | 11.63026 | 37124 ft | 435 kts | 347° |
| 2026-05-07 15:47 | 58.28110 | 11.61115 | 37124 ft | 435 kts | 346° |
| 2026-05-07 15:48 | 58.34057 | 11.59231 | 37124 ft | 436 kts | 346° |
| 2026-05-07 15:48 | 58.40052 | 11.57372 | 37123 ft | 435 kts | 347° |
| 2026-05-07 15:49 | 58.45995 | 11.55529 | 37125 ft | 435 kts | 347° |
| 2026-05-07 15:49 | 58.51981 | 11.53672 | 37153 ft | 435 kts | 346° |
| 2026-05-07 15:50 | 58.57941 | 11.51803 | 37116 ft | 434 kts | 346° |
| 2026-05-07 15:50 | 58.63914 | 11.49923 | 37126 ft | 434 kts | 346° |
| 2026-05-07 15:51 | 58.69872 | 11.48045 | 37124 ft | 434 kts | 346° |
| 2026-05-07 15:51 | 58.75786 | 11.46183 | 36727 ft | 431 kts | 346° |
| 2026-05-07 15:51 | 58.78738 | 11.45255 | 36289 ft | 429 kts | 346° |
| 2026-05-07 15:52 | 58.81670 | 11.44327 | 35732 ft | 425 kts | 346° |
| 2026-05-07 15:52 | 58.84578 | 11.43398 | 35114 ft | 422 kts | 345° |
| 2026-05-07 15:52 | 58.87473 | 11.42473 | 34409 ft | 420 kts | 345° |
| 2026-05-07 15:52 | 58.90356 | 11.41548 | 33550 ft | 420 kts | 345° |
| 2026-05-07 15:53 | 58.93245 | 11.40620 | 32756 ft | 419 kts | 345° |
| 2026-05-07 15:53 | 58.96122 | 11.39697 | 32058 ft | 419 kts | 345° |
| 2026-05-07 15:53 | 58.98981 | 11.38779 | 31333 ft | 421 kts | 345° |
| 2026-05-07 15:53 | 59.01885 | 11.37848 | 30611 ft | 424 kts | 345° |
| 2026-05-07 15:54 | 59.04810 | 11.36906 | 29836 ft | 427 kts | 345° |
| 2026-05-07 15:54 | 59.07765 | 11.35951 | 29031 ft | 431 kts | 345° |
| 2026-05-07 15:54 | 59.10712 | 11.34962 | 28451 ft | 428 kts | 343° |
| 2026-05-07 15:54 | 59.13559 | 11.33715 | 27960 ft | 421 kts | 341° |
| 2026-05-07 15:55 | 59.16401 | 11.32466 | 27189 ft | 418 kts | 344° |
| 2026-05-07 15:55 | 59.19343 | 11.32220 | 26520 ft | 428 kts | 1° |
| 2026-05-07 15:55 | 59.22263 | 11.33662 | 26217 ft | 437 kts | 13° |
| 2026-05-07 15:55 | 59.24166 | 11.34947 | 26143 ft | 437 kts | 13° |
| 2026-05-07 15:56 | 59.27022 | 11.36895 | 25711 ft | 434 kts | 13° |
| 2026-05-07 15:56 | 59.29804 | 11.38718 | 25011 ft | 428 kts | 12° |
| 2026-05-07 15:56 | 59.32613 | 11.40510 | 24292 ft | 424 kts | 12° |
| 2026-05-07 15:56 | 59.35492 | 11.42334 | 23519 ft | 420 kts | 12° |
| 2026-05-07 15:57 | 59.38236 | 11.44068 | 22733 ft | 416 kts | 12° |
| 2026-05-07 15:57 | 59.40974 | 11.45800 | 22272 ft | 412 kts | 12° |
| 2026-05-07 15:57 | 59.43705 | 11.47529 | 22113 ft | 411 kts | 12° |
| 2026-05-07 15:57 | 59.46428 | 11.49242 | 22076 ft | 411 kts | 12° |
| 2026-05-07 15:58 | 59.49143 | 11.50951 | 22077 ft | 411 kts | 12° |
| 2026-05-07 15:58 | 59.51855 | 11.52656 | 21674 ft | 407 kts | 12° |
| 2026-05-07 15:58 | 59.54541 | 11.54349 | 20939 ft | 403 kts | 12° |
| 2026-05-07 15:58 | 59.57196 | 11.56030 | 20233 ft | 399 kts | 12° |
| 2026-05-07 15:59 | 59.59792 | 11.57683 | 19591 ft | 395 kts | 13° |
| 2026-05-07 15:59 | 59.62395 | 11.59343 | 18977 ft | 392 kts | 13° |
| 2026-05-07 15:59 | 59.64983 | 11.60994 | 18410 ft | 388 kts | 13° |
| 2026-05-07 15:59 | 59.67542 | 11.62633 | 17798 ft | 385 kts | 13° |
| 2026-05-07 16:00 | 59.70074 | 11.64259 | 17189 ft | 381 kts | 13° |
| 2026-05-07 16:00 | 59.72595 | 11.65873 | 16615 ft | 378 kts | 13° |
| 2026-05-07 16:00 | 59.75057 | 11.67455 | 16073 ft | 375 kts | 14° |
| 2026-05-07 16:00 | 59.77530 | 11.69045 | 15535 ft | 371 kts | 14° |
| 2026-05-07 16:01 | 59.79983 | 11.70618 | 15015 ft | 369 kts | 14° |
| 2026-05-07 16:01 | 59.82417 | 11.72194 | 14493 ft | 366 kts | 14° |
| 2026-05-07 16:01 | 59.84831 | 11.73754 | 13964 ft | 363 kts | 15° |
| 2026-05-07 16:01 | 59.87220 | 11.75299 | 13392 ft | 360 kts | 15° |
| 2026-05-07 16:02 | 59.89566 | 11.76825 | 12857 ft | 357 kts | 15° |
| 2026-05-07 16:02 | 59.90384 | 11.77359 | 12692 ft | 356 kts | 15° |
| 2026-05-07 16:02 | 59.92618 | 11.78827 | 12199 ft | 353 kts | 15° |
| 2026-05-07 16:02 | 59.93211 | 11.79215 | 12073 ft | 353 kts | 15° |
| 2026-05-07 16:03 | 59.94091 | 11.79784 | 11916 ft | 351 kts | 15° |
| 2026-05-07 16:03 | 59.96379 | 11.81266 | 11520 ft | 348 kts | 15° |
| 2026-05-07 16:03 | 59.98683 | 11.82778 | 11135 ft | 346 kts | 15° |
| 2026-05-07 16:03 | 60.00965 | 11.84274 | 10715 ft | 341 kts | 16° |
| 2026-05-07 16:04 | 60.03187 | 11.85735 | 10122 ft | 338 kts | 16° |
| 2026-05-07 16:04 | 60.05421 | 11.87197 | 9482 ft | 336 kts | 16° |
| 2026-05-07 16:04 | 60.06827 | 11.88120 | 9220 ft | 335 kts | 16° |
| 2026-05-07 16:04 | 60.09042 | 11.89570 | 9080 ft | 335 kts | 16° |
| 2026-05-07 16:05 | 60.11254 | 11.91020 | 9068 ft | 334 kts | 17° |
| 2026-05-07 16:05 | 60.13516 | 11.92043 | 9078 ft | 333 kts | 6° |
| 2026-05-07 16:05 | 60.15787 | 11.92592 | 9083 ft | 332 kts | 5° |
| 2026-05-07 16:05 | 60.18089 | 11.93156 | 9088 ft | 333 kts | 6° |
| 2026-05-07 16:06 | 60.20390 | 11.93779 | 9084 ft | 333 kts | 6° |
| 2026-05-07 16:06 | 60.22688 | 11.94444 | 9093 ft | 334 kts | 7° |
| 2026-05-07 16:06 | 60.24983 | 11.95129 | 9086 ft | 334 kts | 7° |
| 2026-05-07 16:06 | 60.27278 | 11.95775 | 9083 ft | 333 kts | 3° |
| 2026-05-07 16:07 | 60.29553 | 11.95184 | 9068 ft | 330 kts | 339° |
| 2026-05-07 16:07 | 60.31505 | 11.92852 | 9085 ft | 328 kts | 319° |
| 2026-05-07 16:07 | 60.33240 | 11.89966 | 9040 ft | 326 kts | 320° |
| 2026-05-07 16:07 | 60.34861 | 11.86966 | 8557 ft | 307 kts | 306° |
| 2026-05-07 16:08 | 60.35724 | 11.83177 | 8010 ft | 292 kts | 281° |
| 2026-05-07 16:08 | 60.36051 | 11.79219 | 7555 ft | 278 kts | 279° |
| 2026-05-07 16:08 | 60.36418 | 11.75495 | 7015 ft | 269 kts | 283° |
| 2026-05-07 16:08 | 60.36881 | 11.71845 | 6376 ft | 268 kts | 285° |
| 2026-05-07 16:09 | 60.37413 | 11.68230 | 5901 ft | 268 kts | 287° |
| 2026-05-07 16:09 | 60.37977 | 11.64658 | 5431 ft | 266 kts | 288° |
| 2026-05-07 16:09 | 60.38561 | 11.61090 | 5072 ft | 267 kts | 288° |
| 2026-05-07 16:09 | 60.39159 | 11.57534 | 4983 ft | 266 kts | 289° |
| 2026-05-07 16:10 | 60.39744 | 11.54093 | 4979 ft | 254 kts | 289° |
| 2026-05-07 16:10 | 60.40300 | 11.50842 | 4974 ft | 236 kts | 289° |
| 2026-05-07 16:10 | 60.40818 | 11.47814 | 4963 ft | 218 kts | 289° |
| 2026-05-07 16:10 | 60.41302 | 11.44993 | 4964 ft | 214 kts | 289° |
| 2026-05-07 16:11 | 60.41799 | 11.42114 | 4984 ft | 222 kts | 289° |
| 2026-05-07 16:11 | 60.42302 | 11.39062 | 5001 ft | 231 kts | 283° |
| 2026-05-07 16:11 | 60.42211 | 11.35866 | 5001 ft | 230 kts | 250° |
| 2026-05-07 16:11 | 60.41612 | 11.32953 | 4979 ft | 216 kts | 248° |
| 2026-05-07 16:12 | 60.41076 | 11.30220 | 4719 ft | 209 kts | 250° |
| 2026-05-07 16:12 | 60.40614 | 11.27439 | 4329 ft | 208 kts | 253° |
| 2026-05-07 16:12 | 60.40205 | 11.24618 | 4034 ft | 208 kts | 255° |
| 2026-05-07 16:12 | 60.39727 | 11.21871 | 3972 ft | 208 kts | 235° |
| 2026-05-07 16:13 | 60.38596 | 11.20119 | 3891 ft | 207 kts | 197° |
| 2026-05-07 16:13 | 60.37165 | 11.20041 | 3556 ft | 210 kts | 168° |
| 2026-05-07 16:13 | 60.35749 | 11.20714 | 3481 ft | 210 kts | 173° |
| 2026-05-07 16:13 | 60.34324 | 11.20512 | 3473 ft | 210 kts | 193° |
| 2026-05-07 16:14 | 60.32927 | 11.19708 | 3441 ft | 206 kts | 199° |
| 2026-05-07 16:14 | 60.31570 | 11.18893 | 3207 ft | 200 kts | 198° |
| 2026-05-07 16:14 | 60.30237 | 11.18110 | 2898 ft | 200 kts | 197° |
| 2026-05-07 16:14 | 60.28899 | 11.17332 | 2585 ft | 199 kts | 197° |
| 2026-05-07 16:15 | 60.27569 | 11.16559 | 2294 ft | 198 kts | 197° |
| 2026-05-07 16:15 | 60.26312 | 11.15830 | 2010 ft | 181 kts | 197° |
| 2026-05-07 16:15 | 60.25139 | 11.15149 | 1750 ft | 170 kts | 197° |
| 2026-05-07 16:15 | 60.24029 | 11.14505 | 1515 ft | 161 kts | 197° |
| 2026-05-07 16:16 | 60.22998 | 11.13908 | 1304 ft | 140 kts | 197° |
| 2026-05-07 16:16 | 60.22097 | 11.13384 | 1092 ft | 133 kts | 198° |
| 2026-05-07 16:16 | 60.21213 | 11.12864 | 930 ft | 132 kts | 197° |
| 2026-05-07 16:16 | 60.20329 | 11.12366 | 792 ft | 132 kts | 197° |
| 2026-05-07 16:17 | 60.19455 | 11.11866 | 691 ft | 123 kts | 197° |
| 2026-05-07 16:17 | 60.18792 | 11.11481 | 687 ft | 72 kts | 196° |
| 2026-05-07 16:17 | 60.18486 | 11.11252 | 685 ft | 31 kts | 221° |
| 2026-05-07 16:17 | 60.18436 | 11.11034 | 687 ft | 18 kts | 294° |
| 2026-05-07 16:18 | 60.18497 | 11.10917 | 687 ft | 14 kts | 8° |
| 2026-05-07 16:18 | 60.18599 | 11.10974 | 684 ft | 17 kts | 14° |
| 2026-05-07 16:18 | 60.18716 | 11.11041 | 688 ft | 19 kts | 16° |
| 2026-05-07 16:18 | 60.18849 | 11.11118 | 686 ft | 21 kts | 16° |
| 2026-05-07 16:19 | 60.18996 | 11.11203 | 684 ft | 23 kts | 16° |
| 2026-05-07 16:19 | 60.19157 | 11.11296 | 688 ft | 25 kts | 16° |
| 2026-05-07 16:19 | 60.19310 | 11.11385 | 686 ft | 21 kts | 16° |
| 2026-05-07 16:19 | 60.19453 | 11.11467 | 685 ft | 23 kts | 16° |
| 2026-05-07 16:20 | 60.19616 | 11.11562 | 688 ft | 25 kts | 16° |
| 2026-05-07 16:20 | 60.19728 | 11.11554 | 686 ft | 13 kts | 295° |
| 2026-05-07 16:20 | 60.19772 | 11.11371 | 682 ft | 16 kts | 295° |
| 2026-05-07 16:20 | 60.19808 | 11.11149 | 688 ft | 18 kts | 286° |
| 2026-05-07 16:21 | 60.19845 | 11.10896 | 687 ft | 20 kts | 286° |
| 2026-05-07 16:21 | 60.19881 | 11.10649 | 689 ft | 17 kts | 286° |
| 2026-05-07 16:21 | 60.19856 | 11.10557 | 687 ft | 9 kts | 197° |
| 2026-05-07 16:21 | 60.19787 | 11.10515 | 682 ft | 12 kts | 195° |
| 2026-05-07 16:22 | 60.19695 | 11.10463 | 690 ft | 15 kts | 195° |
| 2026-05-07 16:22 | 60.19657 | 11.10382 | 688 ft | 10 kts | 279° |
| 2026-05-07 16:22 | 60.19672 | 11.10280 | 687 ft | 7 kts | 287° |
| 2026-05-07 16:22 | 60.19678 | 11.10236 | 690 ft | 3 kts | 286° |
| 2026-05-07 16:23 | 60.19679 | 11.10229 | 690 ft | 0 kts | 286° |